Isola, MS

12:41 AM CDT on July 24, 2014 (GMT -0500)
Mid Delta Regional (KGLH) Elev 131 ft | 33.48 °N, 90.99 °W | Change Station

Current weather conditions updated 48 minutes ago

Partly Cloudy
Partly Cloudy
74 °F
Feels Like 74 °F
N
7
Wind Variable Wind from North

Today is forecast to be nearly the same temperature as yesterday.

Today
High -- | Low -- °F
--% Chance of Precip.
Yesterday
High -- | Low -- °F
Precip. -- in
6:09 AM 8:07 PM
Waning Crescent, 7% visible
Pressure 30.01 in
Visibility 10.0 miles
Clouds Mostly Cloudy 800 ft
Dew Point 71 °F
Humidity 91%
Rainfall 0.05 in
Snow Depth Not available.
UV 0 out of 12
Pollen 3.20 out of 12
Air Quality Not available.
Flu Activity Not available.
METAR KGLH 240453Z AUTO 01006KT 10SM BKN008 23/22 A3000 RMK AO2 SLP163 T02330217

More Conditions Fewer Conditions

Pressure 30.01 in
Visibility 10.0 miles
Clouds Mostly Cloudy 800 ft
Dew Point 71 °F
Humidity 91%
Rainfall 0.05 in
Snow Depth Not available.
UV 0 out of 12
Pollen 3.20 out of 12
Air Quality Not available.
Flu Activity Not available.
METAR KGLH 240453Z AUTO 01006KT 10SM BKN008 23/22 A3000 RMK AO2 SLP163 T02330217

More Conditions Fewer Conditions

10-Day Weather Forecast

Almanac

Astronomy

Jul. 24, 2014 Rise Set
Actual Time 6:09 AM CDT 8:07 PM CDT
Civil Twilight 5:42 AM CDT 8:35 PM CDT
Nautical Twilight 5:08 AM CDT 9:08 PM CDT
Astronomical Twilight 4:32 AM CDT 9:44 PM CDT
Moon 4:16 AM CDT 6:24 PM CDT
Length of Visible Light 14h 52m
Length of Day
13h 57m
Tomorrow will be 1m 20s shorter.
Waning Crescent, 7% of the Moon is Illuminated
Today
Waning Crescent
Jul 26
New
Aug 3
First Quarter
Aug 10
Full
Aug 17
Last Quarter

Today's Extremes

State Highs State Lows

Community

WunderPhotos

Upload Photos

1,736,923 photos uploaded!

Nearby

Snow Depth

Station Depth Elevation
No new snow has been reported.

Earthquake Activity

City Distance Mag. Time & Date
No recent earthquake activity has been reported nearby.
Minimum magnitude displayed is 2.5.

Coastal Water Temperatures

Place Temperature
No Stations Reporting

Nearby Weather Stations

Station Location Temp. Heat Index Dew Point Humidity Wind Precip. Elev Updated Type
MesoWest BEASLEY LAKE , Inverness, MS 72 °F - 72 °F 100% ENE  at  3 mph 0.00 in / hr 115 ft 11:00 PM CDT MADIS
MesoWest SILVER CITY , Silver City, MS 76 °F 76 °F 74 °F 94% ESE  at  3 mph 0.00 in / hr 115 ft 11:00 PM CDT MADIS

Show More Stations Show Fewer Stations